createdAt,value
2019-04-03T07:50:10.291Z,18.63
2019-04-03T08:00:08.946Z,17.37
2019-04-03T08:10:10.200Z,16.77
2019-04-03T08:20:11.496Z,18.67
2019-04-03T08:30:12.820Z,17.10
2019-04-03T08:40:14.079Z,17.50
2019-04-03T08:50:15.533Z,17.33
2019-04-03T09:00:16.657Z,18.80
2019-04-03T09:10:17.979Z,17.20
2019-04-03T09:20:19.278Z,18.37
2019-04-03T09:30:20.594Z,18.65
2019-04-03T09:40:21.886Z,17.02
2019-04-03T09:50:23.173Z,15.02
2019-04-03T10:00:24.460Z,13.15
2019-04-03T10:10:26.355Z,13.87
2019-04-03T10:20:27.826Z,14.40
2019-04-03T10:30:29.878Z,12.95
2019-04-03T10:40:31.167Z,12.73
2019-04-03T10:50:32.633Z,14.17
2019-04-03T11:00:33.885Z,7.40
2019-04-03T11:10:35.308Z,5.80
2019-04-03T11:20:37.114Z,7.67
2019-04-03T11:30:37.734Z,8.20
2019-04-03T11:40:39.042Z,8.27
2019-04-03T11:50:40.478Z,7.40
2019-04-03T12:00:46.628Z,7.87
2019-04-03T12:10:48.674Z,7.87
2019-04-03T12:20:50.489Z,7.23
2019-04-03T12:30:51.281Z,7.83
2019-04-03T12:40:52.598Z,7.83
2019-04-03T12:50:53.882Z,8.10
2019-04-03T13:00:55.182Z,7.83
2019-04-03T13:10:56.465Z,7.17
2019-04-03T13:21:01.218Z,5.90
2019-04-03T13:31:02.744Z,6.00
2019-04-03T13:41:05.104Z,5.70
2019-04-03T13:51:05.240Z,6.03
2019-04-03T14:01:09.267Z,5.57
2019-04-03T14:11:07.757Z,4.90
2019-04-03T14:21:09.054Z,4.17
2019-04-03T14:31:10.519Z,4.20
2019-04-03T14:41:11.884Z,5.00
